Terminal Aerodrome Forecast
Issued by NWS Aberdeen, SD

Home | Current Version | Previous Version | Text Only | Print | Product List | Glossary On
Versions: 1 2 3 4 5 6 7 8 9 10 11 12 13 14 15 16 17 18 19 20 21 22 23 24 25 26 27 28 29 30 31 32 33 34 35 36 37 38 39 40 41 42 43 44 45 46 47 48 49 50
000
FTUS43 KABR 231100
TAFABR
TAF
KABR 231121Z 2312/2412 12016G23KT P6SM VCSH BKN110
     FM231600 14027G39KT P6SM SCT040 BKN150
     FM232100 15018KT P6SM VCSH OVC025
     FM240600 26004KT P6SM SCT030=

USA.gov is the U.S. government's official web portal to all federal, state and local government web resources and services.